LDRI

Rijeka Airport

Airport
ICAO code
LDRI
IATA Code
RJK
Summary
ICAO Region
EUR
ICAO Territory
Location

Omisalj, Krk

Serving
Rijeka
Elevation
278 ft
Coordinates
45° 13' 0" N , 14° 34' 15" E
KCC
Cfa
Metar
Observation
LDRI 081830Z 05014G25KT 360V090 CAVOK 27/14 Q1016
Station
Rijeka / Omisalj
Date/Time
2022-08-08 18:30:00
Wind direction
50°
Wind speed
14 kts
Lowest cloud amount
clouds and visibility OK
Temperature
27°C
Dew point
14°C
Humidity
44%
QNH
1016 hPa
Weather condition
n/a

Rijeka Airport is the international airport serving Rijeka, Croatia.

Climatology

Humid subtropical climate (Köppen climate classification Cfa)

Runways

Designator Length Width Surface Rops
14/32 2488 45 PEM Yes/Yes

Airport map

Aerial View

SKYbrary Partners:

Safety knowledge contributed by: